Time;durP1;ratioP1;P1;durP2;ratioP2;P2;SDS_P1;SDS_P2;PMS_P1;PMS_P2;Temp;Humidity;BMP_temperature;BMP_pressure;BME280_temperature;BME280_humidity;BME280_pressure;Samples;Min_cycle;Max_cycle;Signal;HPM_P1;HPM_P2
2022/10/20 00:01:18;;;;;;;19.55;9.07;;;12.30;99.90;;;;;;5090900;28;20397;-53
2022/10/20 00:03:45;;;;;;;17.10;8.30;;;12.30;99.90;;;;;;5090817;28;20523;-53
2022/10/20 00:06:21;;;;;;;17.63;9.10;;;12.30;99.90;;;;;;5091657;28;20374;-53
2022/10/20 00:08:48;;;;;;;20.98;10.10;;;12.10;99.90;;;;;;5091268;28;20406;-53
2022/10/20 00:11:16;;;;;;;20.45;9.52;;;12.10;99.90;;;;;;5091766;28;20451;-53
2022/10/20 00:13:44;;;;;;;20.55;9.90;;;12.00;99.90;;;;;;5091046;28;20730;-53
2022/10/20 00:16:10;;;;;;;18.45;9.23;;;12.00;99.90;;;;;;5091381;28;20443;-53
2022/10/20 00:18:37;;;;;;;19.55;9.38;;;12.00;99.90;;;;;;5090453;28;20775;-53
2022/10/20 00:21:09;;;;;;;19.25;9.68;;;12.00;99.90;;;;;;5091106;28;20374;-53
2022/10/20 00:23:35;;;;;;;18.30;8.17;;;12.00;99.90;;;;;;5090675;28;20743;-53
2022/10/20 00:26:13;;;;;;;19.40;9.45;;;12.00;99.90;;;;;;5090580;28;20402;-53
2022/10/20 00:28:38;;;;;;;19.42;9.60;;;12.00;99.90;;;;;;5090779;28;20398;-53
2022/10/20 00:31:05;;;;;;;17.07;9.10;;;11.90;99.90;;;;;;5091254;28;20443;-53
2022/10/20 00:33:32;;;;;;;17.52;9.15;;;12.00;99.90;;;;;;5090119;28;20410;-53
2022/10/20 00:35:59;;;;;;;18.80;8.93;;;12.90;99.90;;;;;;5090879;28;20442;-54
2022/10/20 00:38:25;;;;;;;23.50;10.18;;;11.90;99.90;;;;;;5090655;28;20509;-53
2022/10/20 00:40:51;;;;;;;17.95;9.52;;;12.00;99.90;;;;;;5090852;28;20827;-53
2022/10/20 00:43:17;;;;;;;25.70;10.10;;;12.00;99.90;;;;;;5091348;28;20681;-53
2022/10/20 00:45:48;;;;;;;20.47;10.30;;;12.00;99.90;;;;;;5089926;28;20373;-53
2022/10/20 00:48:16;;;;;;;19.45;9.77;;;11.90;99.90;;;;;;5090329;28;20853;-53
2022/10/20 00:50:46;;;;;;;20.23;10.10;;;12.00;99.90;;;;;;5090129;28;20378;-53
2022/10/20 00:53:12;;;;;;;20.45;10.43;;;11.90;99.90;;;;;;5091019;28;20382;-53
2022/10/20 00:55:41;;;;;;;21.67;10.40;;;11.90;99.90;;;;;;5089988;28;20374;-53
2022/10/20 00:58:07;;;;;;;19.07;9.60;;;11.90;99.90;;;;;;5090561;28;20940;-53
2022/10/20 01:00:33;;;;;;;24.67;9.50;;;11.90;99.90;;;;;;5090114;28;20476;-53
2022/10/20 01:03:01;;;;;;;22.38;10.65;;;11.90;99.90;;;;;;5089980;28;20409;-53
2022/10/20 01:05:27;;;;;;;22.70;10.75;;;11.80;99.90;;;;;;5090213;28;20390;-53
2022/10/20 01:07:53;;;;;;;18.43;9.60;;;11.80;99.90;;;;;;5090258;28;20378;-53
2022/10/20 01:10:19;;;;;;;17.50;9.35;;;11.70;99.90;;;;;;5090421;28;20731;-53
2022/10/20 01:13:06;;;;;;;17.77;9.90;;;11.70;99.90;;;;;;5089968;28;20389;-54
2022/10/20 01:16:11;;;;;;;18.15;9.98;;;11.70;99.90;;;;;;5090369;28;20374;-54
2022/10/20 01:18:45;;;;;;;22.70;10.80;;;11.70;99.90;;;;;;5089496;28;20475;-54
2022/10/20 01:21:20;;;;;;;20.55;10.10;;;11.70;99.90;;;;;;5090263;28;20506;-54
2022/10/20 01:24:10;;;;;;;18.40;9.70;;;11.80;99.90;;;;;;5089563;28;20422;-54
2022/10/20 01:26:53;;;;;;;18.98;9.77;;;11.70;99.90;;;;;;5089330;28;20369;-54
2022/10/20 01:29:27;;;;;;;22.85;9.90;;;11.70;99.90;;;;;;5090003;28;20401;-54
2022/10/20 01:32:06;;;;;;;19.67;9.80;;;11.70;99.90;;;;;;5090271;28;20405;-54
2022/10/20 01:34:44;;;;;;;18.73;9.27;;;11.70;99.90;;;;;;5089405;28;20539;-54
2022/10/20 01:37:30;;;;;;;19.90;9.60;;;11.60;99.90;;;;;;5089748;28;20386;-54
2022/10/20 01:40:26;;;;;;;17.80;8.77;;;11.60;99.90;;;;;;5038453;28;20469;-54
2022/10/20 01:42:55;;;;;;;18.88;9.30;;;11.60;99.90;;;;;;5089642;28;20447;-54
2022/10/20 01:45:24;;;;;;;18.73;9.30;;;11.60;99.90;;;;;;5089873;28;20374;-54
2022/10/20 01:47:52;;;;;;;21.30;8.77;;;11.60;99.90;;;;;;5090226;28;20735;-54
2022/10/20 01:50:19;;;;;;;16.90;8.35;;;11.70;99.90;;;;;;5090060;28;20473;-54
2022/10/20 01:52:45;;;;;;;22.83;9.05;;;11.70;99.90;;;;;;5088955;28;20414;-54
2022/10/20 01:55:13;;;;;;;16.73;8.60;;;11.60;99.90;;;;;;5089888;28;20428;-54
2022/10/20 01:58:11;;;;;;;17.45;8.70;;;11.60;99.90;;;;;;5088874;28;20390;-54
2022/10/20 02:00:38;;;;;;;19.20;8.48;;;11.60;99.90;;;;;;5087244;28;20479;-54
2022/10/20 02:03:16;;;;;;;19.38;9.27;;;11.80;99.90;;;;;;5093442;28;20409;-54
2022/10/20 02:06:00;;;;;;;19.27;9.07;;;11.60;99.90;;;;;;5093027;28;20747;-54
2022/10/20 02:08:29;;;;;;;19.05;9.18;;;11.70;99.90;;;;;;5093346;28;20538;-53
2022/10/20 02:10:58;;;;;;;18.05;8.60;;;11.80;99.90;;;;;;5093982;28;20924;-54
2022/10/20 02:13:27;;;;;;;19.70;9.52;;;11.80;99.90;;;;;;5093455;28;20384;-54
2022/10/20 02:15:59;;;;;;;19.40;9.20;;;11.80;99.90;;;;;;5093915;28;20393;-54
2022/10/20 02:18:29;;;;;;;21.73;9.77;;;11.90;99.90;;;;;;5093413;28;20389;-54
2022/10/20 02:20:57;;;;;;;21.60;9.32;;;11.90;99.90;;;;;;5093738;28;20427;-54
2022/10/20 02:23:23;;;;;;;18.27;8.65;;;12.00;66.60;;;;;;5093332;28;20370;-54
2022/10/20 02:25:51;;;;;;;18.47;8.70;;;11.90;40.70;;;;;;5093801;28;20384;-54
2022/10/20 02:28:20;;;;;;;19.20;8.77;;;11.80;42.20;;;;;;5093246;28;20945;-54
2022/10/20 02:30:46;;;;;;;19.23;9.52;;;11.80;47.00;;;;;;5092434;28;20391;-54
2022/10/20 02:33:14;;;;;;;20.50;9.50;;;11.80;42.50;;;;;;5093405;28;20572;-54
2022/10/20 02:35:48;;;;;;;18.88;8.55;;;11.80;18.10;;;;;;5091986;28;20377;-54
2022/10/20 02:38:13;;;;;;;21.35;8.38;;;11.70;7.00;;;;;;5093118;28;20386;-54
2022/10/20 02:40:39;;;;;;;18.37;8.70;;;11.70;27.10;;;;;;5092584;28;20728;-54
2022/10/20 02:43:04;;;;;;;20.70;8.60;;;11.70;40.60;;;;;;5092769;28;20378;-54
2022/10/20 02:45:30;;;;;;;18.00;8.63;;;11.60;2.90;;;;;;5092809;28;20378;-54
2022/10/20 02:47:56;;;;;;;17.27;8.70;;;11.60;21.00;;;;;;5093573;28;20396;-54
2022/10/20 02:50:21;;;;;;;20.55;9.20;;;11.50;69.10;;;;;;5093010;28;20480;-54
2022/10/20 02:52:47;;;;;;;21.90;9.35;;;11.60;75.30;;;;;;5092101;28;20409;-54
2022/10/20 02:55:13;;;;;;;24.30;9.77;;;11.70;57.30;;;;;;5092865;28;20461;-53
2022/10/20 02:57:38;;;;;;;18.57;9.40;;;11.70;24.30;;;;;;5092248;28;20739;-54
2022/10/20 03:00:06;;;;;;;18.02;8.90;;;11.70;1.00;;;;;;5092992;28;20373;-54
2022/10/20 03:02:31;;;;;;;20.77;9.90;;;11.50;23.00;;;;;;5092342;28;20847;-54
2022/10/20 03:04:57;;;;;;;19.07;8.83;;;11.60;75.20;;;;;;5092802;28;20423;-53
2022/10/20 03:07:22;;;;;;;24.03;9.67;;;11.70;61.70;;;;;;5092388;28;20382;-54
2022/10/20 03:09:48;;;;;;;20.55;9.32;;;11.70;59.40;;;;;;5092354;28;20413;-54
2022/10/20 03:12:13;;;;;;;18.93;8.73;;;11.70;32.00;;;;;;5091729;28;20374;-54
2022/10/20 03:14:41;;;;;;;19.50;9.35;;;11.70;11.30;;;;;;5092114;28;20386;-54
2022/10/20 03:17:07;;;;;;;19.77;8.98;;;11.80;5.00;;;;;;5092546;28;20385;-54
2022/10/20 03:19:32;;;;;;;19.42;9.05;;;11.70;19.40;;;;;;5089517;28;20732;-54
2022/10/20 03:21:58;;;;;;;20.40;8.90;;;11.80;37.00;;;;;;5072281;28;20376;-54
2022/10/20 03:24:24;;;;;;;22.20;10.03;;;11.80;41.80;;;;;;5071719;28;20407;-55
2022/10/20 03:26:49;;;;;;;17.70;8.60;;;11.80;17.70;;;;;;5083321;28;20387;-54
2022/10/20 03:29:15;;;;;;;20.07;9.70;;;10.20;16.60;;;;;;5071808;28;20416;-54
2022/10/20 03:31:41;;;;;;;19.25;9.30;;;11.70;23.30;;;;;;5077602;28;20407;-54
2022/10/20 03:34:06;;;;;;;19.10;9.50;;;11.70;33.40;;;;;;5072123;28;20380;-54
2022/10/20 03:36:32;;;;;;;18.90;9.20;;;11.80;31.10;;;;;;5086707;28;20387;-54
2022/10/20 03:38:57;;;;;;;21.70;9.70;;;11.80;15.60;;;;;;5072042;28;20380;-54
2022/10/20 03:41:23;;;;;;;23.80;9.77;;;11.80;30.60;;;;;;5072028;28;20776;-54
2022/10/20 03:43:49;;;;;;;18.33;8.73;;;13.60;23.30;;;;;;5072379;28;20384;-54
2022/10/20 03:46:14;;;;;;;22.97;9.23;;;11.70;55.70;;;;;;5071305;28;20384;-54
2022/10/20 03:48:40;;;;;;;22.80;9.60;;;11.70;52.60;;;;;;5075306;28;20463;-54
2022/10/20 03:51:08;;;;;;;21.60;9.50;;;11.70;60.90;;;;;;5071573;28;20396;-54
2022/10/20 03:53:33;;;;;;;21.35;9.70;;;11.70;75.10;;;;;;5078294;28;20947;-54
2022/10/20 03:56:08;;;;;;;22.70;9.93;;;11.70;30.50;;;;;;5073001;28;20458;-54
2022/10/20 03:58:34;;;;;;;22.13;10.52;;;11.70;52.80;;;;;;5079637;28;20392;-54
2022/10/20 04:01:00;;;;;;;21.50;9.25;;;11.70;99.00;;;;;;5091579;28;20386;-54
2022/10/20 04:03:25;;;;;;;19.80;9.80;;;11.70;98.70;;;;;;5079991;28;20817;-55
2022/10/20 04:05:51;;;;;;;23.13;10.60;;;10.40;94.10;;;;;;5071023;28;20383;-54
2022/10/20 04:08:16;;;;;;;19.10;9.93;;;11.70;99.90;;;;;;5071415;28;20415;-54
2022/10/20 04:10:42;;;;;;;22.15;10.15;;;11.70;99.90;;;;;;5070000;28;20857;-54
2022/10/20 04:13:08;;;;;;;21.60;10.55;;;11.60;99.90;;;;;;5071302;28;20444;-54
2022/10/20 04:15:34;;;;;;;21.90;10.75;;;11.80;99.90;;;;;;5078757;28;20382;-54
2022/10/20 04:17:59;;;;;;;21.02;10.13;;;11.90;99.90;;;;;;5091002;28;20378;-53
2022/10/20 04:20:25;;;;;;;22.60;11.33;;;11.80;99.90;;;;;;5091031;28;20900;-54
2022/10/20 04:22:50;;;;;;;20.67;10.13;;;11.90;99.90;;;;;;5090127;28;20374;-54
2022/10/20 04:25:16;;;;;;;22.10;10.83;;;11.80;99.90;;;;;;5085498;28;20397;-54
2022/10/20 04:27:42;;;;;;;21.00;10.43;;;11.80;99.90;;;;;;5086968;28;20790;-53
2022/10/20 04:30:08;;;;;;;20.23;9.80;;;11.80;99.90;;;;;;5091102;28;20873;-54
2022/10/20 04:32:34;;;;;;;21.00;10.00;;;11.80;99.90;;;;;;5089108;28;20420;-54
2022/10/20 04:35:00;;;;;;;20.75;9.90;;;12.00;99.90;;;;;;5089198;28;20378;-53
2022/10/20 04:37:26;;;;;;;23.13;10.65;;;11.90;99.90;;;;;;5080414;28;20411;-55
2022/10/20 04:39:51;;;;;;;20.77;10.00;;;11.90;99.90;;;;;;5089408;28;20860;-53
2022/10/20 04:42:18;;;;;;;20.45;9.77;;;12.00;99.90;;;;;;5081353;28;20402;-54
2022/10/20 04:44:43;;;;;;;20.80;10.17;;;12.00;99.90;;;;;;5073021;28;20501;-53
2022/10/20 04:47:09;;;;;;;26.42;11.25;;;12.10;99.90;;;;;;5072883;28;20478;-53
2022/10/20 04:49:35;;;;;;;21.85;10.90;;;12.10;99.90;;;;;;5070815;28;20414;-54
2022/10/20 04:52:01;;;;;;;23.25;10.15;;;12.10;99.90;;;;;;5090183;28;20422;-53
2022/10/20 04:54:27;;;;;;;26.70;12.15;;;12.00;99.90;;;;;;5089595;28;20374;-55
2022/10/20 04:56:52;;;;;;;23.27;10.70;;;12.00;99.90;;;;;;5081068;28;20848;-53
2022/10/20 04:59:18;;;;;;;22.00;10.07;;;12.00;99.90;;;;;;5066978;28;20401;-53
2022/10/20 05:01:43;;;;;;;20.47;11.43;;;12.00;99.90;;;;;;5087730;28;20394;-53
2022/10/20 05:04:10;;;;;;;23.93;11.10;;;11.90;99.90;;;;;;5087438;28;20394;-54
2022/10/20 05:06:36;;;;;;;21.25;10.63;;;12.00;99.90;;;;;;5088997;28;20870;-54
2022/10/20 05:09:05;;;;;;;26.10;11.10;;;11.90;99.90;;;;;;5090166;28;20815;-53
2022/10/20 05:11:34;;;;;;;21.85;10.35;;;11.90;99.90;;;;;;5078686;28;20403;-54
2022/10/20 05:14:00;;;;;;;25.05;10.65;;;12.00;99.90;;;;;;5071232;28;20394;-54
2022/10/20 05:16:25;;;;;;;22.33;10.10;;;12.00;99.90;;;;;;5069098;28;20777;-54
2022/10/20 05:18:52;;;;;;;24.70;10.00;;;10.80;99.90;;;;;;5083983;28;20377;-53
2022/10/20 05:21:27;;;;;;;22.33;10.38;;;11.90;99.90;;;;;;5089944;28;20435;-54
2022/10/20 05:23:56;;;;;;;24.40;10.80;;;11.90;99.90;;;;;;5079104;28;20382;-53
2022/10/20 05:26:23;;;;;;;23.00;11.30;;;11.90;99.90;;;;;;5078292;28;20441;-53
2022/10/20 05:28:50;;;;;;;21.10;11.18;;;11.90;99.90;;;;;;5076276;28;20459;-53
2022/10/20 05:31:17;;;;;;;22.30;10.65;;;11.90;99.90;;;;;;5089146;28;20784;-53
2022/10/20 05:33:45;;;;;;;24.08;11.90;;;11.90;99.90;;;;;;5088623;28;20418;-54
2022/10/20 05:36:12;;;;;;;27.40;10.90;;;11.90;99.90;;;;;;5089447;28;20382;-54
2022/10/20 05:38:39;;;;;;;22.25;11.18;;;12.00;99.90;;;;;;5088797;28;20536;-54
2022/10/20 05:41:10;;;;;;;25.58;10.85;;;12.00;99.90;;;;;;5089719;28;20382;-53
2022/10/20 05:43:36;;;;;;;24.30;10.93;;;11.90;99.90;;;;;;5088971;28;20385;-54
2022/10/20 05:46:02;;;;;;;23.67;10.83;;;12.00;99.90;;;;;;5089678;28;20434;-53
2022/10/20 05:48:28;;;;;;;23.40;10.13;;;12.00;99.90;;;;;;5089321;28;20405;-55
2022/10/20 05:50:53;;;;;;;25.73;10.90;;;10.40;99.90;;;;;;5089489;28;20851;-54
2022/10/20 05:53:19;;;;;;;25.95;11.20;;;11.80;99.90;;;;;;5089717;28;20383;-53
2022/10/20 05:55:45;;;;;;;21.20;10.03;;;11.80;99.90;;;;;;5088759;28;20389;-54
2022/10/20 05:58:10;;;;;;;22.88;9.90;;;11.90;99.90;;;;;;5089278;28;20396;-53
2022/10/20 06:00:40;;;;;;;24.77;11.50;;;11.90;99.90;;;;;;5088495;28;20496;-54
2022/10/20 06:03:07;;;;;;;21.05;11.15;;;11.90;99.90;;;;;;5089854;28;20389;-54
2022/10/20 06:05:33;;;;;;;22.33;10.23;;;11.90;99.90;;;;;;5081331;28;20555;-54
2022/10/20 06:07:59;;;;;;;21.83;10.60;;;11.90;99.90;;;;;;5089723;28;20386;-53
2022/10/20 06:10:24;;;;;;;24.90;11.73;;;11.80;99.90;;;;;;5089056;28;20503;-54
2022/10/20 06:12:50;;;;;;;27.80;11.70;;;11.90;99.90;;;;;;5088774;28;21294;-53
2022/10/20 06:15:16;;;;;;;20.90;10.70;;;12.00;99.90;;;;;;5089176;28;20386;-54
2022/10/20 06:17:41;;;;;;;27.33;11.75;;;12.00;99.90;;;;;;5088325;28;20416;-54
2022/10/20 06:20:07;;;;;;;22.10;9.90;;;12.00;99.90;;;;;;5089012;28;20374;-54
2022/10/20 06:22:33;;;;;;;23.13;10.13;;;12.10;99.90;;;;;;5088226;28;20455;-54
2022/10/20 06:24:58;;;;;;;23.50;10.40;;;12.20;99.90;;;;;;5088974;28;20465;-54
2022/10/20 06:27:24;;;;;;;20.67;10.70;;;12.20;99.90;;;;;;5089193;28;20400;-54
2022/10/20 06:29:50;;;;;;;25.35;10.60;;;12.30;99.90;;;;;;5088196;28;20476;-53
2022/10/20 06:32:17;;;;;;;20.73;9.83;;;12.40;99.90;;;;;;5088862;28;20405;-54
2022/10/20 06:34:42;;;;;;;20.52;10.05;;;12.40;99.90;;;;;;5088358;28;20864;-54
2022/10/20 06:37:09;;;;;;;23.65;11.80;;;12.50;99.90;;;;;;5088631;28;20420;-53
2022/10/20 06:39:34;;;;;;;22.00;9.73;;;12.60;99.90;;;;;;5088405;28;20390;-54
2022/10/20 06:42:02;;;;;;;20.50;10.05;;;12.60;99.90;;;;;;5088978;28;20723;-54
2022/10/20 06:44:28;;;;;;;20.50;9.55;;;12.70;99.90;;;;;;5088472;28;20424;-55
2022/10/20 06:46:53;;;;;;;22.42;9.52;;;12.80;75.70;;;;;;5090323;28;20856;-53
2022/10/20 06:49:19;;;;;;;21.17;9.87;;;12.80;42.90;;;;;;5092544;28;20398;-54
2022/10/20 06:51:45;;;;;;;20.63;9.45;;;13.00;36.40;;;;;;5091729;28;20431;-54
2022/10/20 06:54:11;;;;;;;16.70;8.37;;;13.10;1.00;;;;;;5092582;28;20739;-54
2022/10/20 06:56:38;;;;;;;21.10;8.77;;;13.20;1.00;;;;;;5091618;28;20385;-54
2022/10/20 06:59:04;;;;;;;17.73;9.30;;;13.40;1.00;;;;;;5092769;28;20382;-53
2022/10/20 07:01:37;;;;;;;16.58;8.27;;;13.60;1.00;;;;;;5091680;28;20382;-55
2022/10/20 07:04:06;;;;;;;20.00;9.15;;;14.00;1.00;;;;;;5092283;28;20435;-54
2022/10/20 07:06:34;;;;;;;22.85;9.60;;;14.30;1.00;;;;;;5091293;28;20773;-55
2022/10/20 07:09:02;;;;;;;18.17;8.97;;;14.70;99.90;;;;;;5092275;28;20871;-54
2022/10/20 07:11:29;;;;;;;23.00;8.57;;;15.20;58.60;;;;;;5092242;28;20839;-55
2022/10/20 07:13:58;;;;;;;18.25;8.70;;;15.80;1.00;;;;;;5091871;28;20453;-54
2022/10/20 07:16:25;;;;;;;16.63;8.75;;;16.00;99.90;;;;;;5092284;28;20374;-54
2022/10/20 07:18:51;;;;;;;18.70;7.95;;;16.20;99.90;;;;;;5091331;28;20390;-54
2022/10/20 07:21:20;;;;;;;15.75;7.78;;;16.40;1.00;;;;;;5092121;28;20492;-54
2022/10/20 07:23:46;;;;;;;14.85;7.50;;;16.80;1.00;;;;;;5091473;28;20731;-54
2022/10/20 07:26:15;;;;;;;17.88;7.15;;;17.00;99.90;;;;;;5091636;28;20394;-54
2022/10/20 07:28:43;;;;;;;15.05;7.07;;;17.60;1.00;;;;;;5091243;28;20409;-54
2022/10/20 07:31:12;;;;;;;13.95;7.07;;;18.30;99.90;;;;;;5091772;28;20386;-55
2022/10/20 07:33:38;;;;;;;15.20;7.30;;;19.30;1.00;;;;;;5072996;28;20406;-54
2022/10/20 07:36:18;;;;;;;14.87;7.80;;;19.70;1.00;;;;;;5092031;28;20381;-55
2022/10/20 07:38:45;;;;;;;14.32;7.13;;;19.20;1.00;;;;;;5091277;28;20377;-54
2022/10/20 07:41:11;;;;;;;13.85;7.32;;;18.70;1.00;;;;;;5091776;28;20378;-54
2022/10/20 07:43:37;;;;;;;14.57;6.40;;;18.70;1.00;;;;;;5091119;28;20379;-54
2022/10/20 07:46:04;;;;;;;13.45;6.60;;;18.70;1.00;;;;;;5091914;28;20382;-55
2022/10/20 07:48:30;;;;;;;15.65;6.90;;;19.20;1.00;;;;;;5091034;28;20406;-56
2022/10/20 07:51:23;;;;;;;14.35;6.20;;;19.60;1.00;;;;;;5091040;28;20382;-55
2022/10/20 07:53:50;;;;;;;13.50;5.95;;;19.50;1.00;;;;;;5090748;28;20808;-55
2022/10/20 07:56:15;;;;;;;12.40;6.10;;;19.00;1.00;;;;;;5091459;28;20370;-55
2022/10/20 07:58:41;;;;;;;13.43;6.10;;;18.70;1.00;;;;;;5090611;28;20394;-55
2022/10/20 08:01:08;;;;;;;12.80;6.37;;;18.40;1.00;;;;;;5091077;28;20473;-54
2022/10/20 08:03:34;;;;;;;13.23;6.57;;;17.90;1.00;;;;;;5090436;28;20477;-55
2022/10/20 08:05:59;;;;;;;13.15;6.90;;;17.50;1.00;;;;;;5091419;28;20373;-54
2022/10/20 08:08:26;;;;;;;13.37;6.70;;;17.50;1.00;;;;;;5091072;28;20461;-54
2022/10/20 08:10:51;;;;;;;13.35;6.30;;;17.80;1.00;;;;;;5090606;28;20382;-55
2022/10/20 08:13:17;;;;;;;11.73;5.63;;;18.80;1.00;;;;;;5090811;28;20382;-55
2022/10/20 08:15:43;;;;;;;13.85;6.40;;;20.00;1.00;;;;;;5090092;28;20486;-55
2022/10/20 08:18:08;;;;;;;11.50;5.30;;;20.70;1.00;;;;;;5091076;28;20443;-55
2022/10/20 08:20:34;;;;;;;12.10;6.10;;;21.20;1.00;;;;;;5090360;28;20413;-55
2022/10/20 08:23:00;;;;;;;11.20;5.30;;;21.90;1.00;;;;;;5090930;28;20389;-55
2022/10/20 08:25:25;;;;;;;12.13;6.13;;;22.70;1.00;;;;;;5091107;28;20732;-55
2022/10/20 08:27:51;;;;;;;11.10;5.60;;;22.80;1.00;;;;;;5089798;28;20427;-55
2022/10/20 08:30:16;;;;;;;11.70;5.50;;;23.00;99.90;;;;;;5090838;28;20435;-55
2022/10/20 08:32:42;;;;;;;12.30;5.63;;;22.50;99.90;;;;;;5089571;28;20416;-55
2022/10/20 08:35:08;;;;;;;13.13;6.10;;;21.60;99.90;;;;;;5090789;28;20466;-55
2022/10/20 08:37:35;;;;;;;15.17;5.80;;;21.00;99.90;;;;;;5090061;28;20394;-56
2022/10/20 08:40:04;;;;;;;11.02;5.47;;;21.00;99.90;;;;;;5090810;28;20382;-55
2022/10/20 08:42:38;;;;;;;10.77;5.18;;;21.00;99.90;;;;;;5090143;28;20415;-56
2022/10/20 08:45:04;;;;;;;12.73;5.70;;;21.60;1.00;;;;;;5090731;28;20403;-55
2022/10/20 08:47:34;;;;;;;11.35;5.82;;;21.30;99.90;;;;;;5090294;28;20756;-56
2022/10/20 08:50:03;;;;;;;9.88;4.88;;;20.80;99.90;;;;;;5072330;28;20767;-55
2022/10/20 08:52:30;;;;;;;10.27;4.90;;;21.00;99.90;;;;;;5090142;28;20386;-57
2022/10/20 08:54:56;;;;;;;14.67;5.20;;;21.70;99.90;;;;;;5089925;28;20378;-56
2022/10/20 08:57:30;;;;;;;10.20;4.82;;;22.10;99.90;;;;;;5090445;28;20374;-55
2022/10/20 09:00:19;;;;;;;9.77;5.20;;;22.00;99.90;;;;;;5090015;28;20457;-56
2022/10/20 09:02:46;;;;;;;10.02;4.60;;;;;;;;;;5088683;28;20545;-56
2022/10/20 09:05:13;;;;;;;9.40;4.70;;;23.30;99.90;;;;;;5090079;28;20415;-55
2022/10/20 09:07:39;;;;;;;8.70;4.37;;;23.90;99.90;;;;;;5089288;28;20374;-56
2022/10/20 09:10:32;;;;;;;11.55;5.05;;;24.70;99.90;;;;;;5089214;28;20402;-56
2022/10/20 09:12:59;;;;;;;11.63;5.40;;;25.30;99.90;;;;;;5090099;28;20473;-56
2022/10/20 09:15:26;;;;;;;9.52;4.80;;;24.90;99.90;;;;;;5090104;28;20385;-55
2022/10/20 09:18:09;;;;;;;10.55;4.85;;;24.10;99.90;;;;;;5089264;28;20382;-55
2022/10/20 09:20:43;;;;;;;11.50;5.07;;;23.80;99.90;;;;;;5089207;28;20393;-56
2022/10/20 09:23:15;;;;;;;11.25;5.70;;;24.30;99.90;;;;;;5089913;28;20471;-56
2022/10/20 09:25:42;;;;;;;11.40;5.50;;;24.90;99.90;;;;;;5089066;28;20434;-56
2022/10/20 09:28:25;;;;;;;9.88;4.90;;;25.00;99.90;;;;;;5089657;28;20393;-56
2022/10/20 09:30:52;;;;;;;12.00;5.63;;;25.50;99.90;;;;;;5089214;28;20413;-56
2022/10/20 09:33:30;;;;;;;11.85;5.70;;;25.10;99.90;;;;;;5089231;28;20488;-56
2022/10/20 09:36:12;;;;;;;12.18;5.40;;;24.90;99.90;;;;;;5089681;28;20386;-56
2022/10/20 09:38:42;;;;;;;11.95;5.45;;;25.00;99.90;;;;;;5089421;28;20389;-55
2022/10/20 09:41:09;;;;;;;9.60;5.10;;;24.10;99.90;;;;;;5090001;28;20374;-55
2022/10/20 09:43:38;;;;;;;10.50;5.50;;;24.00;99.90;;;;;;5088983;28;20413;-56
2022/10/20 09:46:06;;;;;;;11.40;5.72;;;23.90;99.90;;;;;;5089872;28;20425;-56
2022/10/20 09:48:38;;;;;;;10.88;5.70;;;24.10;99.90;;;;;;5089225;28;20499;-57
2022/10/20 09:51:05;;;;;;;11.90;5.65;;;24.00;99.90;;;;;;5089764;28;20873;-56
2022/10/20 09:53:36;;;;;;;15.15;5.65;;;23.40;99.90;;;;;;5089358;28;20792;-57
2022/10/20 09:56:02;;;;;;;13.68;5.70;;;23.50;99.90;;;;;;5089632;28;20424;-56
2022/10/20 09:58:30;;;;;;;11.40;5.13;;;22.60;99.90;;;;;;5089946;28;20466;-55
2022/10/20 10:01:11;;;;;;;12.30;5.65;;;22.00;99.90;;;;;;5088900;28;20390;-55
2022/10/20 10:04:00;;;;;;;13.30;6.30;;;21.70;99.90;;;;;;5088831;28;20423;-55
2022/10/20 10:06:42;;;;;;;12.35;6.00;;;21.40;99.90;;;;;;5089528;28;20405;-55
2022/10/20 10:09:29;;;;;;;11.10;5.45;;;21.00;99.90;;;;;;5089222;28;20417;-55
2022/10/20 10:12:02;;;;;;;11.23;5.50;;;20.70;99.90;;;;;;5088968;28;20382;-55
2022/10/20 10:14:29;;;;;;;11.60;5.82;;;20.40;99.90;;;;;;5089222;28;20408;-55
2022/10/20 10:16:57;;;;;;;11.25;5.55;;;20.50;99.90;;;;;;5089137;28;20426;-55
2022/10/20 10:19:27;;;;;;;12.10;5.43;;;20.60;99.90;;;;;;5089355;28;20397;-55
2022/10/20 10:21:56;;;;;;;11.50;5.20;;;20.50;99.90;;;;;;5092487;28;20453;-55
2022/10/20 10:24:45;;;;;;;11.18;5.45;;;20.40;99.90;;;;;;5074799;28;20692;-56
2022/10/20 10:27:32;;;;;;;10.73;4.80;;;20.50;99.90;;;;;;5093051;28;20378;-55
2022/10/20 10:30:15;;;;;;;12.93;5.43;;;21.60;99.90;;;;;;5092973;28;20500;-55
2022/10/20 10:32:46;;;;;;;10.27;4.55;;;20.30;99.90;;;;;;5091755;28;20894;-55
2022/10/20 10:35:29;;;;;;;10.50;5.60;;;20.40;99.90;;;;;;5092879;28;20442;-55
2022/10/20 10:37:57;;;;;;;11.13;5.20;;;20.60;99.90;;;;;;5092018;28;20488;-55
2022/10/20 10:40:33;;;;;;;10.75;5.22;;;20.70;99.90;;;;;;5092838;28;20374;-55
2022/10/20 10:43:23;;;;;;;10.30;4.95;;;20.60;99.90;;;;;;5092931;28;20386;-55
2022/10/20 10:45:50;;;;;;;10.63;5.07;;;20.50;99.90;;;;;;5091831;28;20456;-55
2022/10/20 10:48:44;;;;;;;9.40;5.00;;;20.40;99.90;;;;;;5092689;28;20385;-55
2022/10/20 10:51:20;;;;;;;13.03;4.80;;;20.50;99.90;;;;;;5092916;28;20460;-55
2022/10/20 10:54:05;;;;;;;11.00;4.90;;;20.50;99.90;;;;;;5073862;28;20467;-55
2022/10/20 10:56:47;;;;;;;11.00;4.60;;;20.50;99.90;;;;;;5092952;28;20378;-55
2022/10/20 10:59:26;;;;;;;10.57;5.20;;;20.40;99.90;;;;;;5092642;28;20371;-55
2022/10/20 11:02:16;;;;;;;11.77;5.30;;;20.20;99.90;;;;;;5091618;28;20402;-56
2022/10/20 11:05:02;;;;;;;9.48;4.93;;;19.90;99.90;;;;;;5091496;28;20412;-55
2022/10/20 11:07:31;;;;;;;11.07;5.60;;;19.40;99.90;;;;;;5092694;28;20438;-55
2022/10/20 11:10:19;;;;;;;10.90;4.82;;;19.20;99.90;;;;;;5091923;28;20910;-55
2022/10/20 11:13:21;;;;;;;11.98;5.30;;;19.00;99.90;;;;;;5091668;28;20378;-55
2022/10/20 11:16:11;;;;;;;12.20;5.20;;;19.00;99.90;;;;;;5087156;28;20406;-55
2022/10/20 11:18:55;;;;;;;9.70;4.90;;;19.00;99.90;;;;;;5071299;28;20490;-55
2022/10/20 11:21:32;;;;;;;9.98;4.82;;;19.00;99.90;;;;;;5072037;28;20541;-55
2022/10/20 11:24:28;;;;;;;12.27;5.20;;;19.00;99.90;;;;;;5071703;28;20372;-55
2022/10/20 11:27:29;;;;;;;12.13;5.10;;;19.10;1.00;;;;;;5070721;28;20388;-55
2022/10/20 11:30:04;;;;;;;10.00;5.00;;;19.20;1.00;;;;;;5070896;28;20933;-55
2022/10/20 11:32:41;;;;;;;12.85;4.75;;;19.10;1.00;;;;;;5087814;28;20998;-55
2022/10/20 11:35:17;;;;;;;10.13;4.90;;;19.10;1.00;;;;;;5081123;28;20481;-55
2022/10/20 11:37:59;;;;;;;10.60;5.28;;;19.20;1.00;;;;;;5082471;28;20877;-55
2022/10/20 11:40:37;;;;;;;11.05;5.13;;;19.20;1.00;;;;;;5086377;28;20403;-56
2022/10/20 11:43:31;;;;;;;11.50;5.05;;;19.30;1.00;;;;;;5081613;28;20383;-56
2022/10/20 11:46:04;;;;;;;10.60;5.10;;;19.20;99.90;;;;;;5092452;28;20461;-57
2022/10/20 11:48:39;;;;;;;12.50;5.10;;;19.20;1.00;;;;;;5092820;28;20437;-56
2022/10/20 11:51:12;;;;;;;12.63;5.38;;;19.20;1.00;;;;;;5093834;28;20412;-55
2022/10/20 11:53:51;;;;;;;11.30;5.07;;;19.20;1.00;;;;;;5095402;28;20830;-56
2022/10/20 11:56:40;;;;;;;11.73;5.38;;;19.10;1.00;;;;;;5097216;28;20437;-56
2022/10/20 11:59:24;;;;;;;11.57;5.80;;;19.00;1.00;;;;;;5097278;28;20382;-55
2022/10/20 12:02:25;;;;;;;12.97;5.17;;;19.50;1.00;;;;;;5097310;28;20390;-56
2022/10/20 12:05:06;;;;;;;12.50;4.97;;;18.80;1.00;;;;;;5084077;28;20867;-56
2022/10/20 12:07:34;;;;;;;10.30;4.70;;;18.70;1.00;;;;;;5082348;28;20397;-56
2022/10/20 12:10:00;;;;;;;12.00;5.70;;;19.00;1.00;;;;;;5083520;28;20412;-57
2022/10/20 12:12:34;;;;;;;10.13;4.70;;;18.50;1.00;;;;;;5088135;28;20732;-56
2022/10/20 12:15:02;;;;;;;10.05;4.70;;;18.40;1.00;;;;;;5088658;28;20480;-57
2022/10/20 12:17:34;;;;;;;15.20;6.30;;;18.50;1.00;;;;;;5089207;28;20442;-56
2022/10/20 12:20:21;;;;;;;12.00;4.80;;;18.60;1.00;;;;;;5080003;28;20378;-56
2022/10/20 12:22:52;;;;;;;12.93;6.05;;;18.70;1.00;;;;;;5089955;28;20921;-56
2022/10/20 12:25:24;;;;;;;11.52;4.93;;;18.60;1.00;;;;;;5091153;28;20374;-56
2022/10/20 12:28:21;;;;;;;11.45;5.32;;;18.70;1.00;;;;;;5086264;28;20412;-56
2022/10/20 12:30:58;;;;;;;10.77;5.40;;;18.70;1.00;;;;;;5070792;28;20480;-56
2022/10/20 12:33:35;;;;;;;9.75;4.50;;;18.60;1.00;;;;;;5086532;28;20433;-56
2022/10/20 12:36:13;;;;;;;11.07;4.95;;;19.50;1.00;;;;;;5084212;28;20434;-55
2022/10/20 12:38:40;;;;;;;11.95;5.03;;;18.80;1.00;;;;;;5083701;28;20445;-55
2022/10/20 12:41:08;;;;;;;10.10;5.38;;;18.80;1.00;;;;;;5090603;28;20385;-55
2022/10/20 12:43:52;;;;;;;10.75;5.20;;;18.80;1.00;;;;;;5089557;28;20487;-56
2022/10/20 12:46:27;;;;;;;10.60;4.70;;;18.80;1.00;;;;;;5090595;28;20389;-55
2022/10/20 12:48:58;;;;;;;11.27;5.57;;;18.80;1.00;;;;;;5088040;28;20416;-55
2022/10/20 12:51:50;;;;;;;11.23;5.05;;;18.80;1.00;;;;;;5090298;28;20381;-55
2022/10/20 12:54:38;;;;;;;10.37;5.07;;;18.90;1.00;;;;;;5090535;28;20385;-55
2022/10/20 12:57:36;;;;;;;12.32;5.38;;;18.80;1.00;;;;;;5090459;28;20378;-55